Time;durP1;ratioP1;P1;durP2;ratioP2;P2;SDS_P1;SDS_P2;PMS_P1;PMS_P2;Temp;Humidity;BMP_temperature;BMP_pressure;BME280_temperature;BME280_humidity;BME280_pressure;Samples;Min_cycle;Max_cycle;Signal;HPM_P1;HPM_P2
2022/04/10 00:01:20;;;;;;;11.45;2.78;;;;;;;3.26;100.00;101488.72;4954742;28;20035;-77
2022/04/10 00:03:49;;;;;;;5.53;2.17;;;;;;;3.20;100.00;101496.28;4950016;28;20047;-78
2022/04/10 00:06:17;;;;;;;6.20;1.73;;;;;;;3.17;100.00;101497.84;4958692;28;20051;-77
2022/04/10 00:08:45;;;;;;;7.80;2.08;;;;;;;3.12;100.00;101505.47;4932666;28;20085;-77
2022/04/10 00:11:14;;;;;;;12.90;2.30;;;;;;;3.07;100.00;101501.78;4968114;28;20061;-77
2022/04/10 00:13:43;;;;;;;7.47;2.58;;;;;;;3.01;100.00;101497.19;4968126;28;20047;-77
2022/04/10 00:16:13;;;;;;;13.88;2.70;;;;;;;2.97;100.00;101505.69;4957167;28;20042;-78
2022/04/10 00:18:41;;;;;;;13.70;3.85;;;;;;;2.94;100.00;101497.72;4932560;28;20260;-77
2022/04/10 00:21:10;;;;;;;10.77;3.05;;;;;;;2.91;100.00;101506.31;4957115;28;20408;-77
2022/04/10 00:23:39;;;;;;;15.30;3.40;;;;;;;2.89;100.00;101502.75;4933371;28;20063;-77
2022/04/10 00:26:09;;;;;;;10.30;2.67;;;;;;;2.89;100.00;101501.84;4954232;28;20049;-77
2022/04/10 00:28:37;;;;;;;13.80;2.97;;;;;;;2.88;100.00;101505.28;4925858;28;20053;-77
2022/04/10 00:31:06;;;;;;;14.00;3.08;;;;;;;2.85;100.00;101503.41;4937892;28;20282;-77
2022/04/10 00:33:34;;;;;;;18.48;3.90;;;;;;;2.84;100.00;101503.38;4965950;28;20043;-78
2022/04/10 00:36:04;;;;;;;14.82;2.72;;;;;;;2.84;100.00;101503.38;4964393;28;20043;-77
2022/04/10 00:38:33;;;;;;;14.23;3.45;;;;;;;2.85;100.00;101505.13;4933891;28;20046;-77
2022/04/10 00:41:02;;;;;;;16.27;4.47;;;;;;;2.86;100.00;101513.00;4949925;28;20047;-77
2022/04/10 00:43:34;;;;;;;20.80;4.10;;;;;;;2.87;100.00;101513.91;4962899;28;20405;-79
2022/04/10 00:46:03;;;;;;;16.52;4.40;;;;;;;2.86;100.00;101517.34;4949893;28;20046;-78
2022/04/10 00:48:32;;;;;;;18.15;3.40;;;;;;;2.86;100.00;101517.34;4964752;28;20073;-77
2022/04/10 00:53:47;;;;;;;19.45;4.18;;;;;;;2.85;100.00;101532.03;4966059;28;20062;-78
2022/04/10 00:56:16;;;;;;;20.95;3.67;;;;;;;2.86;100.00;101527.75;4941089;28;20326;-77
2022/04/10 00:58:44;;;;;;;18.45;3.58;;;;;;;2.85;100.00;101518.16;4959469;28;20161;-77
2022/04/10 01:01:19;;;;;;;16.85;4.15;;;;;;;2.87;100.00;101519.09;4971905;28;20039;-77
2022/04/10 01:03:47;;;;;;;24.65;4.03;;;;;;;2.86;100.00;101530.34;4979954;28;20236;-78
2022/04/10 01:06:16;;;;;;;16.23;3.42;;;;;;;2.86;100.00;101526.03;4967340;28;20039;-78
2022/04/10 01:08:44;;;;;;;18.30;2.90;;;;;;;2.86;100.00;101528.63;4963023;28;20047;-78
2022/04/10 01:11:13;;;;;;;15.38;3.42;;;;;;;2.85;100.00;101529.44;4944235;28;20504;-77
2022/04/10 01:13:42;;;;;;;8.75;2.90;;;;;;;2.85;100.00;101528.56;4948630;28;20272;-79
2022/04/10 01:16:12;;;;;;;14.98;3.40;;;;;;;2.85;100.00;101533.75;4938330;28;20043;-77
2022/04/10 01:18:42;;;;;;;17.75;3.78;;;;;;;2.83;100.00;101531.09;4962775;28;20751;-77
2022/04/10 01:21:15;;;;;;;18.58;3.58;;;;;;;2.82;100.00;101537.13;4966359;28;20034;-77
2022/04/10 01:23:45;;;;;;;17.02;4.78;;;;;;;2.82;100.00;101533.66;4980043;28;20251;-78
2022/04/10 01:26:13;;;;;;;19.75;3.72;;;;;;;2.80;100.00;101533.56;4983835;28;20038;-77
2022/04/10 01:28:58;;;;;;;12.40;3.03;;;;;;;2.80;100.00;101528.34;4888843;29;20158;-77
2022/04/10 01:31:30;;;;;;;12.90;3.38;;;;;;;2.78;100.00;101527.41;4951849;28;20043;-77
2022/04/10 01:34:01;;;;;;;26.95;4.10;;;;;;;2.78;100.00;101529.09;4958962;28;20134;-77
2022/04/10 01:36:31;;;;;;;19.23;3.92;;;;;;;2.78;100.00;101529.09;4967816;28;20047;-77
2022/04/10 01:39:01;;;;;;;17.38;3.35;;;;;;;2.77;100.00;101540.34;4983692;28;20062;-77
2022/04/10 01:41:30;;;;;;;24.60;3.88;;;;;;;2.77;100.00;101536.00;4935344;28;20043;-78
2022/04/10 01:44:02;;;;;;;19.70;3.58;;;;;;;2.79;100.00;101556.91;4924970;28;20042;-78
2022/04/10 01:46:32;;;;;;;15.07;3.10;;;;;;;2.80;100.00;101548.28;4956965;28;20035;-77
2022/04/10 01:49:03;;;;;;;19.38;4.32;;;;;;;2.78;100.00;101549.91;4964981;28;20047;-78
2022/04/10 01:51:32;;;;;;;;;;;;;;;2.78;100.00;101549.91;4963993;28;20543;-78
2022/04/10 01:54:01;;;;;;;23.15;3.45;;;;;;;2.78;100.00;101552.50;4963570;28;20383;-78
2022/04/10 01:56:29;;;;;;;16.58;3.60;;;;;;;2.78;100.00;101558.63;4965665;28;20054;-77
2022/04/10 01:58:58;;;;;;;14.57;3.38;;;;;;;2.79;100.00;101562.13;4930652;28;20039;-77
2022/04/10 02:01:26;;;;;;;20.30;3.88;;;;;;;2.79;100.00;101563.00;4947511;29;20050;-78
2022/04/10 02:03:55;;;;;;;21.73;3.80;;;;;;;2.77;100.00;101551.63;4951710;28;20463;-77
2022/04/10 02:06:23;;;;;;;13.93;3.13;;;;;;;2.78;100.00;101550.81;4981667;28;20035;-77
2022/04/10 02:08:53;;;;;;;17.57;3.67;;;;;;;2.79;100.00;101551.72;4949499;28;20180;-77
2022/04/10 02:11:23;;;;;;;9.57;3.17;;;;;;;2.79;100.00;101552.59;4967078;28;20049;-77
2022/04/10 02:13:57;;;;;;;13.50;3.15;;;;;;;2.80;100.00;101554.38;4954084;28;25875;-78
2022/04/10 02:16:25;;;;;;;14.13;3.10;;;;;;;2.80;100.00;101553.47;4958709;28;20039;-79
2022/04/10 02:18:54;;;;;;;13.88;3.40;;;;;;;2.82;100.00;101546.66;4955374;28;20046;-78
2022/04/10 02:21:23;;;;;;;13.95;2.97;;;;;;;2.81;100.00;101550.94;4966729;28;20047;-77
2022/04/10 02:23:52;;;;;;;15.60;3.58;;;;;;;2.81;100.00;101553.56;4964171;28;20070;-78
2022/04/10 02:26:20;;;;;;;15.43;3.58;;;;;;;2.80;100.00;101554.38;4967373;28;20046;-78
2022/04/10 02:28:49;;;;;;;15.02;2.97;;;;;;;2.79;100.00;101564.72;4961166;28;20051;-78
2022/04/10 02:31:17;;;;;;;12.80;3.28;;;;;;;2.79;100.00;101573.41;4957479;28;20519;-76
2022/04/10 02:33:46;;;;;;;13.48;3.25;;;;;;;2.82;100.00;101583.09;4945941;28;20055;-77
2022/04/10 02:36:16;;;;;;;16.17;2.60;;;;;;;2.84;100.00;101597.06;4947900;28;20055;-78
2022/04/10 02:38:45;;;;;;;;;;;;;;;2.82;100.00;101603.94;4943636;28;20051;-77
2022/04/10 02:41:18;;;;;;;8.88;2.83;;;;;;;2.75;100.00;101578.41;4970995;28;19923;-77
2022/04/10 02:43:47;;;;;;;9.70;2.85;;;;;;;2.69;100.00;101582.50;4973846;28;20259;-78
2022/04/10 02:46:15;;;;;;;19.52;3.25;;;;;;;2.62;100.00;101572.63;4949710;28;20046;-77
2022/04/10 02:48:44;;;;;;;12.07;2.70;;;;;;;2.60;100.00;101578.59;4954608;28;20046;-78
2022/04/10 02:51:17;;;;;;;11.48;2.75;;;;;;;2.58;100.00;101583.72;4980529;28;20042;-77
2022/04/10 02:53:48;;;;;;;9.18;2.50;;;;;;;2.56;100.00;101569.75;4956673;28;20277;-77
2022/04/10 02:56:16;;;;;;;12.93;3.30;;;;;;;2.56;100.00;101569.75;4929228;28;20066;-77
2022/04/10 02:58:45;;;;;;;9.57;2.28;;;;;;;2.54;100.00;101569.66;4960024;28;20524;-79
2022/04/10 03:01:13;;;;;;;11.35;3.10;;;;;;;2.54;100.00;101579.19;4955322;28;20050;-77
2022/04/10 03:03:42;;;;;;;14.95;2.70;;;;;;;2.54;100.00;101574.88;4933446;28;20047;-76
2022/04/10 03:06:11;;;;;;;15.98;2.88;;;;;;;2.57;100.00;101591.44;4962861;28;20047;-77
2022/04/10 03:08:40;;;;;;;17.08;2.83;;;;;;;2.59;100.00;101610.63;4927117;29;20234;-78
2022/04/10 03:11:09;;;;;;;12.55;2.92;;;;;;;2.59;100.00;101621.03;4962155;28;20055;-77
2022/04/10 03:13:38;;;;;;;15.27;3.28;;;;;;;2.55;100.00;101630.41;4942110;28;20051;-76
2022/04/10 03:16:08;;;;;;;15.43;3.03;;;;;;;2.49;100.00;101624.91;4952552;28;20051;-77
2022/04/10 03:18:37;;;;;;;7.63;2.28;;;;;;;2.46;100.00;101590.94;4928729;28;20047;-77
2022/04/10 03:21:05;;;;;;;13.32;2.28;;;;;;;2.45;100.00;101599.56;4940442;28;20043;-77
2022/04/10 03:23:34;;;;;;;8.93;2.33;;;;;;;2.42;100.00;101602.91;4944903;28;20043;-77
2022/04/10 03:26:02;;;;;;;7.38;2.47;;;;;;;2.41;100.00;101610.66;4965656;28;20050;-77
2022/04/10 03:28:32;;;;;;;11.50;2.77;;;;;;;2.39;100.00;101617.47;4944431;28;20047;-77
2022/04/10 03:31:01;;;;;;;10.30;1.95;;;;;;;2.38;100.00;101613.97;4952053;28;20286;-78
2022/04/10 03:33:30;;;;;;;6.30;1.92;;;;;;;2.34;100.00;101615.56;4932168;28;20043;-77
2022/04/10 03:35:59;;;;;;;12.00;2.53;;;;;;;2.33;100.00;101618.06;4939743;28;20767;-77
2022/04/10 03:38:28;;;;;;;8.05;2.03;;;;;;;2.35;100.00;101621.63;4928930;29;20052;-77
2022/04/10 03:40:56;;;;;;;11.85;2.17;;;;;;;2.33;100.00;101631.06;4960383;28;20513;-77
2022/04/10 03:43:25;;;;;;;12.57;2.83;;;;;;;2.32;100.00;101624.97;4962856;28;20046;-77
2022/04/10 03:45:54;;;;;;;11.60;3.38;;;;;;;2.32;100.00;101619.75;4964619;28;20066;-77
2022/04/10 03:48:23;;;;;;;10.10;2.50;;;;;;;2.30;100.00;101618.78;4921035;28;20058;-77
2022/04/10 03:50:51;;;;;;;12.90;2.97;;;;;;;2.29;100.00;101626.56;4939272;28;20051;-77
2022/04/10 03:53:21;;;;;;;10.05;3.20;;;;;;;2.27;100.00;101618.66;4985639;28;20047;-77
2022/04/10 03:55:49;;;;;;;14.80;3.72;;;;;;;2.27;100.00;101620.34;4950459;28;20244;-77
2022/04/10 03:58:19;;;;;;;10.73;3.10;;;;;;;2.27;100.00;101625.56;4954207;28;20399;-77
2022/04/10 04:00:48;;;;;;;15.35;3.42;;;;;;;2.28;100.00;101636.03;4929400;29;20047;-77
2022/04/10 04:03:18;;;;;;;12.03;2.60;;;;;;;2.28;100.00;101630.84;4944512;28;20393;-77
2022/04/10 04:05:47;;;;;;;15.93;4.03;;;;;;;2.27;100.00;101639.47;4947136;28;20255;-77
2022/04/10 04:08:17;;;;;;;13.25;3.10;;;;;;;2.29;100.00;101642.16;4947666;28;20511;-77
2022/04/10 04:10:46;;;;;;;9.38;3.03;;;;;;;2.31;100.00;101643.13;4948688;28;20046;-78
2022/04/10 04:13:15;;;;;;;13.15;2.67;;;;;;;2.28;100.00;101649.03;4984779;28;20053;-77
2022/04/10 04:15:44;;;;;;;16.77;3.08;;;;;;;2.27;100.00;101654.16;4927177;29;20288;-77
2022/04/10 04:18:12;;;;;;;9.82;2.22;;;;;;;2.27;100.00;101672.38;4950009;28;20385;-78
2022/04/10 04:20:41;;;;;;;11.90;2.80;;;;;;;2.25;100.00;101695.72;4921753;28;20259;-77
2022/04/10 04:23:10;;;;;;;9.65;2.20;;;;;;;2.24;100.00;101716.44;4955803;28;20066;-78
2022/04/10 04:25:41;;;;;;;6.32;2.17;;;;;;;2.16;100.00;101713.44;4951529;28;20501;-78
2022/04/10 04:28:13;;;;;;;10.88;1.80;;;;;;;2.05;100.00;101701.59;4967884;28;20043;-78
2022/04/10 04:30:41;;;;;;;4.57;1.80;;;;;;;1.95;100.00;101690.72;4980171;28;20574;-77
2022/04/10 04:33:09;;;;;;;7.70;1.73;;;;;;;1.89;100.00;101682.63;4970265;28;20054;-78
2022/04/10 04:35:39;;;;;;;2.33;1.83;;;;;;;1.86;100.00;101685.06;4935683;28;20044;-78
2022/04/10 04:38:07;;;;;;;4.80;1.80;;;;;;;1.84;100.00;101673.69;4947569;28;20050;-77
2022/04/10 04:40:37;;;;;;;6.30;1.88;;;;;;;1.85;100.00;101677.19;4946391;28;20051;-78
2022/04/10 04:43:09;;;;;;;5.88;2.05;;;;;;;1.85;100.00;101682.38;4933632;29;20051;-77
2022/04/10 04:45:38;;;;;;;4.28;2.30;;;;;;;1.84;100.00;101683.19;4962809;28;20412;-77
2022/04/10 04:48:14;;;;;;;6.90;2.00;;;;;;;1.84;100.00;101671.09;4983607;28;20038;-77
2022/04/10 04:50:44;;;;;;;11.32;2.20;;;;;;;1.83;100.00;101677.09;4924187;28;20295;-77
2022/04/10 04:53:19;;;;;;;3.40;2.03;;;;;;;1.82;100.00;101680.50;4968351;28;20051;-77
2022/04/10 04:55:48;;;;;;;7.88;1.92;;;;;;;1.83;100.00;101682.28;4953201;28;20272;-77
2022/04/10 04:58:24;;;;;;;14.15;2.45;;;;;;;1.84;100.00;101686.69;4964741;28;20042;-77
2022/04/10 05:00:52;;;;;;;7.97;2.75;;;;;;;1.84;100.00;101691.00;4965950;28;20065;-77
2022/04/10 05:03:22;;;;;;;4.28;1.80;;;;;;;1.86;100.00;101697.16;4952227;28;20038;-77
2022/04/10 05:05:51;;;;;;;5.32;1.88;;;;;;;1.88;100.00;101699.03;4940336;28;20043;-77
2022/04/10 05:08:24;;;;;;;9.80;2.40;;;;;;;1.88;100.00;101699.03;4965231;28;20035;-78
2022/04/10 05:10:54;;;;;;;10.18;1.83;;;;;;;1.88;100.00;101696.41;4969843;28;20619;-77
2022/04/10 05:13:24;;;;;;;9.15;1.88;;;;;;;1.89;100.00;101689.50;4971765;28;20054;-78
2022/04/10 05:15:54;;;;;;;2.97;2.03;;;;;;;1.88;100.00;101696.41;4978718;28;20058;-78
2022/04/10 05:18:27;;;;;;;7.70;3.63;;;;;;;1.89;100.00;101698.22;4944121;28;20059;-77
2022/04/10 05:20:55;;;;;;;9.05;1.92;;;;;;;1.87;100.00;101694.66;4930629;28;20344;-77
2022/04/10 05:23:26;;;;;;;;;;;;;;;1.88;100.00;101712.03;4960256;28;20051;-77
2022/04/10 05:26:10;;;;;;;6.72;2.08;;;;;;;1.88;100.00;101717.22;4945727;28;20315;-77
2022/04/10 05:28:43;;;;;;;5.82;1.85;;;;;;;1.90;100.00;101720.78;4945345;28;20524;-78
2022/04/10 05:31:11;;;;;;;6.25;2.17;;;;;;;1.92;100.00;101729.56;4961547;28;20065;-77
2022/04/10 05:33:43;;;;;;;6.57;1.98;;;;;;;1.95;100.00;101737.53;4955957;28;20047;-77
2022/04/10 05:36:11;;;;;;;9.07;3.05;;;;;;;2.00;100.00;101735.16;4912104;28;20039;-77
2022/04/10 05:38:45;;;;;;;9.70;2.20;;;;;;;2.04;100.00;101733.59;4964274;28;20043;-78
2022/04/10 05:41:17;;;;;;;11.60;2.53;;;;;;;2.07;100.00;101739.88;4944778;28;20047;-77
2022/04/10 05:43:49;;;;;;;8.00;2.30;;;;;;;2.12;100.00;101733.19;4968584;28;20255;-77
2022/04/10 05:46:19;;;;;;;15.60;2.65;;;;;;;2.20;100.00;101733.59;4969246;28;20035;-77
2022/04/10 05:48:54;;;;;;;13.27;2.53;;;;;;;2.26;100.00;101728.69;4967794;28;20065;-78
2022/04/10 05:51:24;;;;;;;9.00;2.30;;;;;;;2.33;100.00;101732.53;4963009;28;20042;-77
2022/04/10 05:53:54;;;;;;;7.30;2.10;;;;;;;2.39;100.00;101738.03;4952582;28;20043;-77
2022/04/10 05:56:23;;;;;;;15.57;2.53;;;;;;;2.45;100.00;101737.44;4964743;28;20046;-77
2022/04/10 05:58:51;;;;;;;11.00;2.50;;;;;;;2.53;100.00;101754.31;4941414;28;20169;-77
2022/04/10 06:01:22;;;;;;;4.90;2.05;;;;;;;2.59;100.00;101751.13;4982766;28;20058;-77
2022/04/10 06:03:53;;;;;;;10.70;1.85;;;;;;;2.65;100.00;101743.66;4950101;28;20451;-77
2022/04/10 06:06:21;;;;;;;7.38;2.58;;;;;;;2.67;100.00;101750.72;4968599;28;20062;-77
2022/04/10 06:08:58;;;;;;;9.50;2.50;;;;;;;2.73;100.00;101758.81;4948577;28;20039;-77
2022/04/10 06:11:28;;;;;;;7.55;2.10;;;;;;;2.79;100.00;101757.34;4962181;28;20052;-78
2022/04/10 06:13:58;;;;;;;5.93;2.30;;;;;;;2.84;100.00;101772.38;4956125;28;20043;-77
2022/04/10 06:16:30;;;;;;;9.00;2.38;;;;;;;2.87;100.00;101759.53;4977433;28;20047;-78
2022/04/10 06:18:59;;;;;;;8.30;2.53;;;;;;;2.94;100.00;101776.31;4950291;28;20149;-77
2022/04/10 06:21:29;;;;;;;10.32;2.10;;;;;;;3.00;100.00;101781.81;4965798;28;20045;-78
2022/04/10 06:23:58;;;;;;;5.10;1.92;;;;;;;3.17;100.00;101784.34;4955977;28;20444;-77
2022/04/10 06:26:37;;;;;;;9.63;2.57;;;;;;;3.39;100.00;101791.50;4934036;28;20515;-77
2022/04/10 06:29:06;;;;;;;6.35;1.75;;;;;;;3.51;100.00;101797.28;4923797;28;20298;-78
2022/04/10 06:31:43;;;;;;;8.98;2.53;;;;;;;3.58;100.00;101790.66;4946404;28;20241;-78
2022/04/10 06:34:14;;;;;;;4.68;2.33;;;;;;;3.69;100.00;101787.72;4970394;28;20047;-77
2022/04/10 06:36:43;;;;;;;7.43;2.45;;;;;;;3.79;100.00;101788.13;4962081;28;20053;-78
2022/04/10 06:39:16;;;;;;;8.07;2.20;;;;;;;3.82;100.00;101783.97;4983376;28;20054;-77
2022/04/10 06:41:46;;;;;;;6.87;1.90;;;;;;;3.85;100.00;101789.28;4937510;28;20328;-78
2022/04/10 06:44:26;;;;;;;7.32;2.55;;;;;;;3.92;100.00;101797.41;4928183;28;20295;-78
2022/04/10 06:47:05;;;;;;;6.10;1.88;;;;;;;4.05;100.00;101798.03;4947756;28;20058;-77
2022/04/10 06:49:37;;;;;;;10.30;2.58;;;;;;;4.18;100.00;101799.47;4975410;28;20035;-77
2022/04/10 06:52:06;;;;;;;5.25;1.60;;;;;;;4.54;100.00;101790.56;4969134;28;20043;-77
2022/04/10 06:54:39;;;;;;;10.40;2.55;;;;;;;5.02;100.00;101789.13;4923203;28;20500;-77
2022/04/10 06:57:13;;;;;;;6.03;1.85;;;;;;;5.64;100.00;101787.22;4920338;28;20062;-78
2022/04/10 06:59:42;;;;;;;7.22;1.75;;;;;;;6.11;100.00;101783.75;4933446;28;20043;-78
2022/04/10 07:02:13;;;;;;;5.85;1.77;;;;;;;6.41;100.00;101789.19;4966080;28;20055;-77
2022/04/10 07:04:42;;;;;;;5.72;2.00;;;;;;;6.52;100.00;101803.56;4956662;28;20051;-78
2022/04/10 07:07:11;;;;;;;9.23;2.47;;;;;;;6.57;100.00;101788.88;4934988;28;20046;-78
2022/04/10 07:09:40;;;;;;;6.68;2.10;;;;;;;6.79;100.00;101803.59;4963038;28;20279;-77
2022/04/10 07:12:09;;;;;;;10.68;1.83;;;;;;;6.95;100.00;101806.72;4922830;28;20043;-78
2022/04/10 07:14:43;;;;;;;7.55;2.38;;;;;;;7.07;100.00;101806.22;4947056;28;20043;-78
2022/04/10 07:17:12;;;;;;;6.55;1.90;;;;;;;6.99;100.00;101809.53;4955653;28;20051;-78
2022/04/10 07:19:41;;;;;;;7.13;2.00;;;;;;;6.91;100.00;101820.56;4930297;28;20051;-79
2022/04/10 07:25:00;;;;;;;10.00;2.85;;;;;;;6.85;100.00;101823.00;4961660;28;20046;-77
2022/04/10 07:27:28;;;;;;;10.05;2.35;;;;;;;6.77;100.00;101834.09;4935904;28;20235;-78
2022/04/10 07:30:10;;;;;;;11.45;2.35;;;;;;;6.52;100.00;101823.59;4964807;28;20042;-78
2022/04/10 07:32:41;;;;;;;16.92;3.55;;;;;;;6.29;100.00;101838.47;4944863;28;20051;-77
2022/04/10 07:35:16;;;;;;;10.88;2.88;;;;;;;6.14;100.00;101847.53;4946639;28;20165;-77
2022/04/10 07:37:55;;;;;;;7.18;2.17;;;;;;;6.12;100.00;101849.19;4941870;28;20058;-77
2022/04/10 07:40:24;;;;;;;6.18;1.85;;;;;;;6.07;100.00;101837.69;4926829;28;20240;-78
2022/04/10 07:42:56;;;;;;;9.90;2.53;;;;;;;5.99;100.00;101846.97;4959289;28;20039;-78
2022/04/10 07:48:27;;;;;;;12.40;2.25;;;;;;;5.89;100.00;101866.63;4965578;28;20267;-78
2022/04/10 07:50:57;;;;;;;12.07;2.38;;;;;;;5.83;100.00;101862.03;4959885;28;20047;-78
2022/04/10 07:53:39;;;;;;;13.73;3.22;;;;;;;5.82;100.00;101870.75;4954795;28;20042;-77
2022/04/10 07:56:09;;;;;;;13.82;5.22;;;;;;;5.88;100.00;101867.47;4928934;28;20407;-78
2022/04/10 07:58:38;;;;;;;15.93;3.97;;;;;;;5.96;100.00;101867.78;4916810;28;20035;-78
2022/04/10 08:01:20;;;;;;;8.57;2.75;;;;;;;6.11;100.00;101864.88;4933626;28;20046;-77
2022/04/10 08:03:52;;;;;;;8.50;2.67;;;;;;;6.25;100.00;101869.75;4959763;28;20045;-79
2022/04/10 08:06:41;;;;;;;8.98;1.85;;;;;;;6.51;100.00;101874.19;4971147;28;20051;-78
2022/04/10 08:09:10;;;;;;;7.22;2.10;;;;;;;6.65;100.00;101865.09;4967696;28;20069;-78
2022/04/10 08:11:39;;;;;;;13.25;2.67;;;;;;;6.82;100.00;101866.59;4959094;28;20472;-78
2022/04/10 08:14:07;;;;;;;9.43;1.75;;;;;;;7.01;100.00;101880.31;4960962;28;20051;-78
2022/04/10 08:16:36;;;;;;;6.82;1.60;;;;;;;6.93;100.00;101884.41;4947522;29;20054;-78
2022/04/10 08:19:04;;;;;;;5.22;1.60;;;;;;;6.72;100.00;101890.66;4960261;28;20054;-79
2022/04/10 08:21:33;;;;;;;4.78;2.00;;;;;;;6.79;100.00;101891.78;4949646;28;20045;-78
2022/04/10 08:24:01;;;;;;;7.60;1.60;;;;;;;6.95;100.00;101894.09;4935030;28;20050;-78
2022/04/10 08:26:30;;;;;;;6.47;2.17;;;;;;;7.12;100.00;101897.28;4944184;28;20264;-78
2022/04/10 08:28:58;;;;;;;13.48;2.80;;;;;;;7.32;100.00;101894.47;4937880;28;20496;-79
2022/04/10 08:31:28;;;;;;;7.18;2.63;;;;;;;7.55;100.00;101908.34;4980585;28;20039;-78
2022/04/10 08:33:57;;;;;;;6.28;2.17;;;;;;;7.85;100.00;101894.41;4974704;28;20511;-77
2022/04/10 08:36:26;;;;;;;6.05;2.10;;;;;;;8.04;100.00;101899.38;4962166;28;20034;-78
2022/04/10 08:38:56;;;;;;;6.18;2.50;;;;;;;8.22;100.00;101906.00;4946332;28;20058;-77
2022/04/10 08:41:31;;;;;;;4.90;2.30;;;;;;;8.27;100.00;101892.19;4943580;28;20046;-77
2022/04/10 08:44:01;;;;;;;9.77;2.30;;;;;;;8.33;100.00;101908.09;4958669;28;20051;-78
2022/04/10 08:46:33;;;;;;;8.18;2.17;;;;;;;8.44;100.00;101895.31;4966946;28;20042;-78
2022/04/10 08:49:02;;;;;;;12.30;2.75;;;;;;;8.50;100.00;101908.63;4972438;28;20501;-77
2022/04/10 08:51:30;;;;;;;9.13;2.30;;;;;;;8.57;100.00;101913.22;4943251;28;20043;-77
2022/04/10 08:54:00;;;;;;;9.15;2.13;;;;;;;8.60;100.00;101915.06;4969058;28;20038;-77
2022/04/10 08:56:29;;;;;;;10.27;2.25;;;;;;;8.57;99.82;101905.34;4964635;28;20279;-77
2022/04/10 08:58:57;;;;;;;9.27;1.90;;;;;;;8.55;97.22;101908.78;4923088;28;20038;-78
2022/04/10 09:01:25;;;;;;;11.13;2.10;;;;;;;8.33;95.81;101923.88;4972328;28;20027;-79
2022/04/10 09:03:54;;;;;;;11.30;2.08;;;;;;;8.09;96.96;101931.00;4960296;28;20045;-77
2022/04/10 09:06:22;;;;;;;10.05;2.10;;;;;;;7.94;95.23;101920.91;4929423;28;20058;-77
2022/04/10 09:08:51;;;;;;;8.52;2.05;;;;;;;7.87;96.02;101927.72;4935518;28;20929;-77
2022/04/10 09:11:19;;;;;;;6.93;2.00;;;;;;;7.74;95.39;101930.81;4963991;28;20050;-77
2022/04/10 09:13:48;;;;;;;8.95;1.77;;;;;;;7.70;95.78;101927.19;4926557;28;20681;-78
2022/04/10 09:16:21;;;;;;;6.38;1.80;;;;;;;7.74;93.07;101921.19;4961097;28;20054;-80
2022/04/10 09:19:04;;;;;;;5.55;1.88;;;;;;;7.68;90.63;101926.25;4969202;28;20066;-78
2022/04/10 09:21:35;;;;;;;6.82;1.80;;;;;;;7.70;91.04;101931.56;4943669;28;20535;-78
2022/04/10 09:24:04;;;;;;;7.30;1.80;;;;;;;7.66;90.69;101943.69;4979154;28;20047;-78
2022/04/10 09:26:50;;;;;;;7.55;2.17;;;;;;;7.69;89.83;101935.88;4979743;28;20050;-78
2022/04/10 09:29:21;;;;;;;3.83;1.58;;;;;;;7.67;91.55;101953.31;4931684;28;20054;-78
2022/04/10 09:31:50;;;;;;;4.53;1.50;;;;;;;7.63;90.21;101951.44;4939596;28;20043;-77
2022/04/10 09:34:21;;;;;;;5.15;1.73;;;;;;;7.59;90.88;101945.19;4944425;28;20058;-79
2022/04/10 09:37:14;;;;;;;6.28;1.52;;;;;;;7.63;89.57;101938.31;4947808;28;20046;-78
2022/04/10 09:39:44;;;;;;;6.03;1.98;;;;;;;7.70;89.64;101949.91;4958286;28;20050;-78
2022/04/10 09:42:14;;;;;;;4.85;1.83;;;;;;;7.74;90.52;101952.69;4963200;28;20044;-78
2022/04/10 09:45:02;;;;;;;15.07;2.20;;;;;;;7.83;92.00;101945.97;4938845;28;20050;-78
2022/04/10 09:47:32;;;;;;;8.75;2.35;;;;;;;7.85;92.38;101944.28;4964170;28;20554;-78
2022/04/10 09:50:05;;;;;;;11.60;1.83;;;;;;;7.76;90.80;101953.63;4944898;28;20526;-78
2022/04/10 09:52:37;;;;;;;9.27;2.03;;;;;;;7.71;90.02;101949.97;4939187;28;20530;-78
2022/04/10 09:55:08;;;;;;;6.93;1.88;;;;;;;7.69;90.56;101948.13;4960409;28;20136;-77
2022/04/10 09:57:51;;;;;;;4.63;2.22;;;;;;;7.71;90.57;101942.09;4946176;28;20259;-77
2022/04/10 10:00:20;;;;;;;6.65;1.58;;;;;;;7.83;93.30;101956.47;4901057;28;20235;-77
2022/04/10 10:02:50;;;;;;;2.78;1.13;;;;;;;7.94;93.06;101949.78;4959336;28;20044;-78
2022/04/10 10:05:19;;;;;;;3.97;1.58;;;;;;;8.00;92.11;101955.25;4944669;28;20799;-78
2022/04/10 10:07:49;;;;;;;5.28;1.50;;;;;;;8.01;90.60;101957.00;4944403;28;20039;-77
2022/04/10 10:10:20;;;;;;;6.22;1.50;;;;;;;8.03;89.71;101955.31;4976527;28;20074;-77
2022/04/10 10:12:51;;;;;;;5.57;1.83;;;;;;;8.08;89.16;101948.50;4962013;28;20047;-78
2022/04/10 10:15:20;;;;;;;4.43;1.40;;;;;;;8.10;90.66;101954.69;4927024;28;20482;-77
2022/04/10 10:17:51;;;;;;;6.03;1.20;;;;;;;8.13;89.35;101967.91;4955574;28;20043;-78
2022/04/10 10:20:23;;;;;;;4.10;1.20;;;;;;;8.12;88.01;101960.00;4956626;28;20537;-78
2022/04/10 10:22:51;;;;;;;7.07;2.25;;;;;;;8.19;89.85;101961.97;4942095;28;20028;-78
2022/04/10 10:25:44;;;;;;;4.75;1.25;;;;;;;8.29;88.57;101965.75;4945229;28;20244;-77
2022/04/10 10:28:19;;;;;;;4.90;1.40;;;;;;;8.28;86.62;101966.59;4949947;28;20035;-78
2022/04/10 10:31:11;;;;;;;3.95;1.40;;;;;;;8.26;86.21;101968.28;4971739;28;20039;-77
2022/04/10 10:33:49;;;;;;;5.75;1.60;;;;;;;8.15;82.23;101960.97;4955141;28;20467;-78
2022/04/10 10:36:26;;;;;;;3.72;1.20;;;;;;;8.12;82.09;101976.63;4957361;28;20261;-77
2022/04/10 10:38:56;;;;;;;5.85;1.50;;;;;;;8.07;85.74;101967.75;4920583;28;20041;-77
2022/04/10 10:41:27;;;;;;;8.68;1.45;;;;;;;8.19;88.36;101975.97;4956472;28;20420;-77
2022/04/10 10:43:56;;;;;;;12.43;2.25;;;;;;;8.26;87.73;101973.53;4960006;28;20035;-77
2022/04/10 10:46:28;;;;;;;9.30;2.22;;;;;;;8.35;88.77;101977.31;4937453;28;20957;-77
2022/04/10 10:49:19;;;;;;;5.85;1.80;;;;;;;8.41;85.28;101979.25;4961088;28;20047;-77
2022/04/10 10:51:51;;;;;;;3.47;1.48;;;;;;;8.42;88.84;101975.81;4972381;28;20039;-77
2022/04/10 10:54:34;;;;;;;8.73;2.22;;;;;;;8.52;88.36;101985.75;4919468;28;21397;-78
2022/04/10 10:57:41;;;;;;;9.75;2.20;;;;;;;8.55;85.63;101972.72;4958294;28;20255;-79
2022/04/10 11:00:18;;;;;;;6.75;2.10;;;;;;;8.59;89.49;101977.22;4939177;28;20460;-78
2022/04/10 11:02:54;;;;;;;7.07;1.83;;;;;;;8.58;88.51;101995.53;4923523;28;20054;-77
2022/04/10 11:05:24;;;;;;;7.65;1.75;;;;;;;8.44;87.13;101986.38;4961180;28;20043;-79
2022/04/10 11:08:04;;;;;;;8.07;1.73;;;;;;;8.31;85.05;101990.31;4934073;28;20097;-78
2022/04/10 11:10:42;;;;;;;7.20;1.80;;;;;;;8.33;84.29;101988.63;4951538;28;20260;-78
2022/04/10 11:13:13;;;;;;;5.28;1.83;;;;;;;8.43;86.25;101987.22;4963798;28;20438;-77
2022/04/10 11:15:53;;;;;;;5.53;2.15;;;;;;;8.50;86.11;101992.69;4952737;28;20522;-78
2022/04/10 11:18:22;;;;;;;5.97;1.98;;;;;;;8.39;85.28;101994.06;4937355;28;20047;-78
2022/04/10 11:20:57;;;;;;;11.30;1.88;;;;;;;8.46;86.10;101993.44;4966865;28;20063;-79
2022/04/10 11:23:31;;;;;;;3.47;1.40;;;;;;;8.53;85.60;101992.81;4953307;28;20257;-78
2022/04/10 11:26:02;;;;;;;8.88;1.83;;;;;;;8.55;84.99;101995.47;4949358;28;20039;-78
2022/04/10 11:28:36;;;;;;;6.47;2.38;;;;;;;8.57;85.90;101997.28;4947299;28;20055;-78
2022/04/10 11:31:31;;;;;;;13.65;2.45;;;;;;;8.74;84.48;101991.66;4942842;28;20748;-78
2022/04/10 11:34:11;;;;;;;5.35;2.00;;;;;;;8.82;84.85;101989.25;4929638;28;20042;-77
2022/04/10 11:36:52;;;;;;;5.50;2.08;;;;;;;8.95;85.35;101988.75;4949046;28;20043;-78
2022/04/10 11:39:33;;;;;;;4.72;1.67;;;;;;;9.15;82.89;101998.06;4939977;28;20380;-78
2022/04/10 11:42:11;;;;;;;7.32;1.80;;;;;;;9.31;83.76;101990.59;4951393;28;20043;-79
2022/04/10 11:44:39;;;;;;;8.20;1.63;;;;;;;9.41;83.32;101989.09;4934182;28;20067;-78
2022/04/10 11:47:10;;;;;;;6.80;1.80;;;;;;;9.43;83.17;101982.13;4916844;28;20575;-79
2022/04/10 11:49:48;;;;;;;7.53;1.45;;;;;;;9.44;82.11;101991.81;4917484;28;20039;-78
2022/04/10 11:52:18;;;;;;;11.88;1.80;;;;;;;9.53;83.18;101995.56;4978133;28;20681;-78